Time;durP1;ratioP1;P1;durP2;ratioP2;P2;SDS_P1;SDS_P2;PMS_P1;PMS_P2;Temp;Humidity;BMP_temperature;BMP_pressure;BME280_temperature;BME280_humidity;BME280_pressure;Samples;Min_cycle;Max_cycle;Signal;HPM_P1;HPM_P2
2021/06/24 00:00:48;;;;;;;6.17;5.63;;;20.00;93.10;;;;;;5056529;28;20857;-66
2021/06/24 00:03:15;;;;;;;6.70;5.40;;;19.90;93.10;;;;;;5056432;28;20477;-66
2021/06/24 00:05:42;;;;;;;7.70;6.53;;;19.90;93.20;;;;;;5073687;28;20457;-65
2021/06/24 00:08:11;;;;;;;7.63;4.57;;;19.90;93.20;;;;;;5074283;28;20467;-66
2021/06/24 00:10:42;;;;;;;8.60;6.10;;;19.80;93.50;;;;;;5073521;28;20571;-64
2021/06/24 00:13:09;;;;;;;5.97;5.47;;;19.80;93.70;;;;;;5074113;28;20536;-67
2021/06/24 00:15:37;;;;;;;8.07;5.07;;;19.80;93.70;;;;;;5073419;28;20471;-64
2021/06/24 00:18:05;;;;;;;5.30;4.80;;;19.70;93.70;;;;;;5062102;28;20481;-67
2021/06/24 00:20:31;;;;;;;5.10;4.60;;;19.70;93.90;;;;;;5068001;28;20465;-65
2021/06/24 00:22:58;;;;;;;7.13;6.53;;;19.70;94.00;;;;;;5070406;28;20540;-66
2021/06/24 00:25:25;;;;;;;11.20;7.87;;;19.70;94.10;;;;;;5072302;28;20980;-67
2021/06/24 00:27:54;;;;;;;26.80;24.10;;;19.70;94.10;;;;;;5073598;28;20479;-66
2021/06/24 00:30:21;;;;;;;40.50;36.27;;;19.70;94.30;;;;;;5073459;28;20479;-66
2021/06/24 00:32:48;;;;;;;33.77;30.70;;;19.70;94.50;;;;;;5068257;28;20466;-66
2021/06/24 00:35:15;;;;;;;36.63;33.73;;;19.60;94.50;;;;;;5061420;28;20826;-66
2021/06/24 00:37:42;;;;;;;21.03;19.33;;;19.60;94.60;;;;;;5073290;28;20851;-66
2021/06/24 00:40:10;;;;;;;14.50;13.30;;;19.60;94.70;;;;;;5073477;28;20461;-66
2021/06/24 00:42:38;;;;;;;11.60;10.60;;;19.60;94.80;;;;;;5057961;28;20470;-66
2021/06/24 00:45:08;;;;;;;8.57;7.93;;;19.50;94.90;;;;;;5071196;28;20777;-66
2021/06/24 00:47:35;;;;;;;11.00;10.00;;;19.50;94.90;;;;;;5069111;28;20473;-65
2021/06/24 00:50:03;;;;;;;11.87;10.90;;;19.50;94.90;;;;;;5073142;28;20478;-66
2021/06/24 00:52:29;;;;;;;13.40;12.20;;;19.40;95.00;;;;;;5073141;28;20492;-66
2021/06/24 00:54:56;;;;;;;10.53;9.73;;;19.40;95.10;;;;;;5073217;28;20824;-66
2021/06/24 00:57:25;;;;;;;12.27;11.47;;;19.40;95.10;;;;;;5072567;28;20481;-66
2021/06/24 00:59:53;;;;;;;10.70;9.60;;;19.40;95.10;;;;;;5068371;28;20454;-67
2021/06/24 01:02:21;;;;;;;12.63;8.50;;;19.40;95.10;;;;;;5073060;28;20467;-65
2021/06/24 01:04:48;;;;;;;8.20;7.30;;;19.40;95.20;;;;;;5072574;28;21276;-65
2021/06/24 01:07:15;;;;;;;7.60;6.80;;;19.40;95.20;;;;;;5072881;28;20472;-66
2021/06/24 01:09:42;;;;;;;8.20;7.50;;;19.40;95.20;;;;;;5072418;28;20475;-67
2021/06/24 01:12:11;;;;;;;7.80;7.10;;;19.40;95.20;;;;;;5073069;28;20472;-66
2021/06/24 01:14:38;;;;;;;7.60;6.83;;;19.40;95.20;;;;;;5072414;28;20479;-66
2021/06/24 01:17:05;;;;;;;8.20;7.40;;;19.40;95.20;;;;;;5069147;28;20974;-66
2021/06/24 01:19:33;;;;;;;6.77;6.17;;;19.40;95.30;;;;;;5058687;28;20466;-66
2021/06/24 01:22:00;;;;;;;7.50;6.77;;;19.40;95.50;;;;;;5072844;28;20475;-66
2021/06/24 01:24:29;;;;;;;6.67;6.00;;;19.40;95.50;;;;;;5072365;28;20473;-66
2021/06/24 01:26:56;;;;;;;6.00;5.37;;;19.30;95.50;;;;;;5072642;28;20476;-66
2021/06/24 01:29:23;;;;;;;9.67;5.87;;;19.40;95.50;;;;;;5072493;28;20474;-67
2021/06/24 01:31:50;;;;;;;7.33;5.63;;;19.30;95.60;;;;;;5072036;28;20468;-66
2021/06/24 01:34:17;;;;;;;5.37;4.97;;;19.30;95.70;;;;;;5055725;28;20459;-65
2021/06/24 01:36:43;;;;;;;7.70;6.20;;;19.30;95.70;;;;;;5071764;28;20475;-67
2021/06/24 01:39:14;;;;;;;6.97;6.37;;;19.30;95.70;;;;;;5072205;28;20552;-65
2021/06/24 01:41:42;;;;;;;5.73;5.30;;;19.30;95.60;;;;;;5064900;28;20476;-65
2021/06/24 01:44:09;;;;;;;7.13;6.03;;;19.30;95.60;;;;;;5062068;28;20464;-64
2021/06/24 01:46:37;;;;;;;6.97;5.37;;;19.30;95.60;;;;;;5070066;28;20518;-66
2021/06/24 01:49:04;;;;;;;5.67;5.03;;;19.30;95.70;;;;;;5070726;28;20461;-66
2021/06/24 01:51:31;;;;;;;7.47;5.03;;;19.30;95.70;;;;;;5072136;28;20472;-65
2021/06/24 01:53:58;;;;;;;5.93;5.43;;;19.30;95.70;;;;;;5072744;28;20860;-65
2021/06/24 01:56:24;;;;;;;5.33;4.87;;;19.30;95.70;;;;;;5072720;28;20460;-66
2021/06/24 01:58:53;;;;;;;5.03;4.50;;;19.40;95.70;;;;;;5070143;28;20795;-65
2021/06/24 02:01:20;;;;;;;4.97;4.57;;;19.40;95.70;;;;;;5068877;28;20463;-65
2021/06/24 02:03:47;;;;;;;9.47;6.30;;;19.40;95.60;;;;;;5072035;28;20480;-66
2021/06/24 02:06:14;;;;;;;6.23;5.20;;;19.40;95.50;;;;;;5072497;28;20842;-66
2021/06/24 02:08:41;;;;;;;6.10;4.70;;;19.40;95.50;;;;;;5071703;28;20997;-66
2021/06/24 02:11:08;;;;;;;5.50;5.00;;;19.50;95.50;;;;;;5072067;28;20473;-66
2021/06/24 02:13:35;;;;;;;10.03;5.83;;;19.50;95.50;;;;;;5071257;28;20465;-66
2021/06/24 02:16:03;;;;;;;4.57;4.27;;;19.40;95.50;;;;;;5071700;28;20867;-66
2021/06/24 02:18:30;;;;;;;6.77;5.47;;;19.40;95.60;;;;;;5056576;28;20891;-66
2021/06/24 02:20:57;;;;;;;7.77;4.77;;;19.40;95.70;;;;;;5070093;28;20480;-66
2021/06/24 02:23:23;;;;;;;7.50;5.37;;;19.50;95.60;;;;;;5072432;28;20464;-66
2021/06/24 02:25:50;;;;;;;8.73;6.10;;;19.40;95.60;;;;;;5071924;28;20457;-66
2021/06/24 02:28:17;;;;;;;5.70;5.30;;;19.50;95.60;;;;;;5072037;28;21041;-66
2021/06/24 02:30:44;;;;;;;6.77;6.17;;;19.50;95.60;;;;;;5071937;28;20469;-66
2021/06/24 02:33:12;;;;;;;6.43;5.37;;;19.50;95.50;;;;;;5063975;28;20966;-66
2021/06/24 02:35:39;;;;;;;7.50;5.23;;;19.50;95.50;;;;;;5063271;28;20547;-66
2021/06/24 02:38:08;;;;;;;7.00;6.27;;;19.50;95.60;;;;;;5071363;28;20484;-66
2021/06/24 02:40:35;;;;;;;6.53;5.93;;;19.40;95.60;;;;;;5071895;28;20476;-65
2021/06/24 02:43:02;;;;;;;6.00;5.40;;;19.50;95.70;;;;;;5053748;28;20483;-65
2021/06/24 02:45:28;;;;;;;6.63;6.00;;;19.50;95.70;;;;;;5071921;28;20484;-65
2021/06/24 02:47:55;;;;;;;6.27;5.67;;;19.40;95.70;;;;;;5067697;28;20481;-65
2021/06/24 02:50:26;;;;;;;8.50;6.57;;;19.40;95.70;;;;;;5071864;28;20472;-66
2021/06/24 02:52:53;;;;;;;5.63;5.13;;;19.30;95.80;;;;;;5071622;28;20959;-65
2021/06/24 02:55:19;;;;;;;5.80;5.30;;;19.30;95.90;;;;;;5072067;28;20468;-66
2021/06/24 02:57:46;;;;;;;6.13;5.50;;;19.30;96.00;;;;;;5074625;28;20479;-66
2021/06/24 03:00:15;;;;;;;10.47;6.10;;;19.30;96.00;;;;;;5070659;28;20834;-66
2021/06/24 03:02:42;;;;;;;5.20;4.80;;;19.30;96.10;;;;;;5075045;28;20850;-66
2021/06/24 03:05:11;;;;;;;6.93;6.30;;;19.30;96.10;;;;;;5075280;28;20492;-66
2021/06/24 03:07:40;;;;;;;7.43;6.00;;;19.30;96.20;;;;;;5075026;28;20978;-65
2021/06/24 03:10:08;;;;;;;11.73;7.00;;;19.20;96.30;;;;;;5075109;28;20467;-66
2021/06/24 03:12:35;;;;;;;7.80;5.87;;;19.20;96.50;;;;;;5074840;28;20471;-65
2021/06/24 03:15:02;;;;;;;6.90;5.83;;;19.20;96.50;;;;;;5075556;28;20460;-66
2021/06/24 03:17:29;;;;;;;8.17;5.80;;;19.10;96.50;;;;;;5068437;28;20549;-66
2021/06/24 03:19:56;;;;;;;6.67;6.00;;;19.10;96.60;;;;;;5064362;28;20541;-66
2021/06/24 03:22:23;;;;;;;6.10;5.50;;;19.20;96.70;;;;;;5075360;28;20468;-66
2021/06/24 03:24:51;;;;;;;7.47;6.50;;;19.10;96.80;;;;;;5074575;28;20468;-65
2021/06/24 03:27:18;;;;;;;6.40;5.80;;;19.10;96.90;;;;;;5074959;28;20470;-66
2021/06/24 03:29:45;;;;;;;6.13;5.60;;;19.10;97.00;;;;;;5074677;28;20531;-65
2021/06/24 03:32:12;;;;;;;10.13;7.20;;;19.00;97.10;;;;;;5075038;28;20463;-65
2021/06/24 03:34:39;;;;;;;5.50;5.13;;;19.00;97.30;;;;;;5057500;28;20542;-66
2021/06/24 03:37:06;;;;;;;5.73;5.00;;;19.00;97.40;;;;;;5074735;28;20463;-65
2021/06/24 03:39:33;;;;;;;5.97;5.50;;;19.00;97.40;;;;;;5064552;28;20481;-65
2021/06/24 03:42:01;;;;;;;8.50;6.10;;;19.00;97.40;;;;;;5062553;28;20464;-65
2021/06/24 03:44:28;;;;;;;7.27;5.80;;;19.10;97.50;;;;;;5073903;28;20462;-64
2021/06/24 03:46:55;;;;;;;7.83;7.13;;;19.00;97.50;;;;;;5070236;28;20540;-67
2021/06/24 03:49:22;;;;;;;11.07;6.73;;;19.00;97.60;;;;;;5054659;28;20469;-65
2021/06/24 03:51:49;;;;;;;7.27;6.30;;;19.00;97.80;;;;;;5054187;28;20480;-65
2021/06/24 03:54:16;;;;;;;7.03;5.33;;;19.00;97.90;;;;;;5053326;28;20475;-66
2021/06/24 03:56:42;;;;;;;7.87;5.67;;;19.00;98.00;;;;;;5052182;28;20465;-65
2021/06/24 03:59:11;;;;;;;6.60;5.50;;;19.00;98.00;;;;;;5052535;28;20483;-66
2021/06/24 04:01:42;;;;;;;5.70;5.20;;;19.10;98.00;;;;;;5052136;28;20486;-66
2021/06/24 04:04:10;;;;;;;6.50;6.00;;;19.10;98.00;;;;;;5052997;28;20492;-65
2021/06/24 04:06:37;;;;;;;6.70;6.00;;;19.10;98.00;;;;;;5053882;28;20474;-65
2021/06/24 04:09:05;;;;;;;7.50;6.50;;;19.10;98.00;;;;;;5053160;28;20462;-65
2021/06/24 04:11:32;;;;;;;8.63;5.60;;;19.10;98.10;;;;;;5054442;28;20853;-65
2021/06/24 04:13:59;;;;;;;7.80;6.23;;;19.10;98.10;;;;;;5053802;28;21135;-65
2021/06/24 04:16:27;;;;;;;6.70;5.80;;;19.10;98.20;;;;;;5054209;28;20467;-65
2021/06/24 04:18:54;;;;;;;6.17;5.40;;;19.10;98.20;;;;;;5071926;28;20487;-65
2021/06/24 04:21:21;;;;;;;9.33;6.20;;;19.10;98.20;;;;;;5073977;28;20817;-65
2021/06/24 04:23:48;;;;;;;6.80;5.47;;;19.20;98.30;;;;;;5073654;28;20495;-65
2021/06/24 04:26:15;;;;;;;8.53;6.37;;;19.20;98.30;;;;;;5073701;28;20464;-65
2021/06/24 04:28:42;;;;;;;7.80;5.70;;;19.20;98.50;;;;;;5073409;28;20481;-65
2021/06/24 04:31:09;;;;;;;8.77;5.93;;;19.20;98.40;;;;;;5073723;28;20535;-65
2021/06/24 04:33:37;;;;;;;8.97;5.87;;;19.20;98.50;;;;;;5066322;28;20957;-65
2021/06/24 04:36:05;;;;;;;6.90;6.00;;;19.20;98.60;;;;;;5053551;28;20455;-67
2021/06/24 04:38:32;;;;;;;7.00;6.30;;;19.20;98.60;;;;;;5053987;28;20479;-66
2021/06/24 04:40:59;;;;;;;6.80;6.20;;;19.20;98.70;;;;;;5053045;28;20807;-66
2021/06/24 04:43:26;;;;;;;7.20;6.50;;;19.20;98.80;;;;;;5053818;28;20470;-66
2021/06/24 04:45:52;;;;;;;8.13;7.00;;;19.20;98.80;;;;;;5053269;28;20471;-66
2021/06/24 04:48:23;;;;;;;7.70;6.90;;;19.20;98.90;;;;;;5053311;28;20470;-66
2021/06/24 04:50:52;;;;;;;7.73;7.00;;;19.20;98.90;;;;;;5071937;28;20471;-66
2021/06/24 04:53:18;;;;;;;11.63;7.33;;;19.20;99.10;;;;;;5073476;28;20470;-67
2021/06/24 04:55:45;;;;;;;8.17;7.47;;;19.20;99.10;;;;;;5072983;28;20475;-66
2021/06/24 04:58:12;;;;;;;9.60;7.10;;;19.20;99.20;;;;;;5073235;28;20462;-66
2021/06/24 05:00:39;;;;;;;9.80;7.43;;;19.20;99.30;;;;;;5069876;28;20462;-66
2021/06/24 05:03:10;;;;;;;9.43;7.00;;;19.20;99.30;;;;;;5052686;28;20457;-65
2021/06/24 05:05:37;;;;;;;7.73;6.87;;;19.20;99.40;;;;;;5053314;28;20950;-65
2021/06/24 05:08:11;;;;;;;9.47;8.10;;;19.20;99.60;;;;;;5052997;28;20464;-66
2021/06/24 05:10:37;;;;;;;7.53;6.73;;;19.20;99.70;;;;;;5053254;28;20483;-65
2021/06/24 05:13:04;;;;;;;8.67;7.60;;;19.20;99.70;;;;;;5052458;28;20474;-65
2021/06/24 05:15:31;;;;;;;8.13;6.10;;;19.20;99.80;;;;;;5053212;28;20465;-65
2021/06/24 05:17:58;;;;;;;19.60;15.23;;;19.20;99.90;;;;;;5052351;28;20488;-65
2021/06/24 05:20:26;;;;;;;32.60;29.10;;;19.30;99.90;;;;;;5052962;28;20479;-66
2021/06/24 05:22:53;;;;;;;35.60;30.03;;;19.40;99.90;;;;;;5052595;28;20463;-67
2021/06/24 05:25:21;;;;;;;11.37;9.00;;;19.50;99.90;;;;;;5052973;28;20471;-66
2021/06/24 05:27:48;;;;;;;8.77;7.83;;;19.60;99.90;;;;;;5052496;28;20475;-66
2021/06/24 05:30:16;;;;;;;7.43;6.73;;;19.70;99.90;;;;;;5053154;28;20472;-66
2021/06/24 05:32:44;;;;;;;12.17;8.63;;;19.70;99.90;;;;;;5052820;28;20463;-66
2021/06/24 05:35:12;;;;;;;10.80;9.03;;;19.70;99.90;;;;;;5052571;28;20488;-66
2021/06/24 05:37:39;;;;;;;11.73;8.97;;;19.80;99.90;;;;;;5052631;28;20964;-66
2021/06/24 05:40:07;;;;;;;11.10;7.97;;;19.80;99.90;;;;;;5052326;28;20908;-66
2021/06/24 05:42:35;;;;;;;8.20;7.40;;;19.90;99.90;;;;;;5052787;28;20979;-66
2021/06/24 05:45:02;;;;;;;7.50;6.80;;;19.90;99.90;;;;;;5052159;28;20470;-66
2021/06/24 05:47:29;;;;;;;8.67;7.30;;;20.00;99.90;;;;;;5052706;28;20465;-66
2021/06/24 05:49:55;;;;;;;7.17;6.50;;;20.10;99.90;;;;;;5052286;28;20476;-66
2021/06/24 05:52:22;;;;;;;8.30;7.57;;;20.20;99.90;;;;;;5052443;28;20458;-66
2021/06/24 05:54:49;;;;;;;8.10;7.03;;;20.30;99.90;;;;;;5052313;28;20477;-66
2021/06/24 05:57:16;;;;;;;10.10;7.20;;;20.30;99.90;;;;;;5052355;28;20471;-66
2021/06/24 05:59:44;;;;;;;11.87;8.00;;;20.40;99.90;;;;;;5052335;28;20470;-66
2021/06/24 06:02:11;;;;;;;13.37;7.23;;;20.50;99.90;;;;;;5052078;28;20462;-66
2021/06/24 06:04:38;;;;;;;8.10;7.00;;;20.50;99.90;;;;;;5052461;28;20459;-66
2021/06/24 06:07:05;;;;;;;9.70;7.80;;;20.50;99.90;;;;;;5051888;28;20817;-65
2021/06/24 06:09:32;;;;;;;8.13;7.33;;;20.40;99.90;;;;;;5052542;28;20822;-66
2021/06/24 06:11:58;;;;;;;11.50;7.50;;;20.40;99.90;;;;;;5051810;28;21110;-66
2021/06/24 06:14:25;;;;;;;10.40;7.63;;;20.30;99.90;;;;;;5052434;28;20469;-66
2021/06/24 06:16:53;;;;;;;11.67;8.87;;;20.30;99.90;;;;;;5051948;28;20478;-66
2021/06/24 06:19:20;;;;;;;12.17;8.83;;;20.20;99.90;;;;;;5052146;28;20471;-66
2021/06/24 06:21:47;;;;;;;12.37;8.40;;;20.20;99.90;;;;;;5052291;28;20471;-66
2021/06/24 06:24:14;;;;;;;10.03;9.00;;;20.20;99.90;;;;;;5051970;28;20500;-64
2021/06/24 06:26:41;;;;;;;9.53;8.57;;;20.10;99.90;;;;;;5052155;28;20470;-65
2021/06/24 06:29:08;;;;;;;9.03;8.13;;;20.10;99.90;;;;;;5051599;28;20470;-65
2021/06/24 06:31:38;;;;;;;9.93;8.67;;;20.10;99.90;;;;;;5053867;28;20467;-66
2021/06/24 06:34:06;;;;;;;10.60;9.50;;;20.00;99.90;;;;;;5055590;28;20470;-66
2021/06/24 06:36:33;;;;;;;10.73;9.00;;;20.00;99.90;;;;;;5056111;28;20466;-66
2021/06/24 06:39:00;;;;;;;12.33;10.30;;;20.00;99.90;;;;;;5055452;28;20967;-66
2021/06/24 06:41:27;;;;;;;10.07;9.10;;;19.90;99.90;;;;;;5055933;28;20468;-66
2021/06/24 06:43:54;;;;;;;10.17;9.20;;;19.90;99.90;;;;;;5055368;28;20477;-66
2021/06/24 06:46:20;;;;;;;12.73;11.20;;;19.90;99.90;;;;;;5056021;28;20463;-66
2021/06/24 06:48:47;;;;;;;11.87;10.50;;;19.90;99.90;;;;;;5055620;28;20779;-66
2021/06/24 06:51:16;;;;;;;12.70;9.97;;;19.90;99.90;;;;;;5054226;28;20458;-66
2021/06/24 06:53:42;;;;;;;11.53;10.43;;;19.80;99.90;;;;;;5054794;28;20975;-66
2021/06/24 06:56:11;;;;;;;10.20;9.40;;;19.80;99.90;;;;;;5054610;28;20469;-66
2021/06/24 06:58:38;;;;;;;13.63;11.77;;;19.80;99.90;;;;;;5054877;28;20474;-66
2021/06/24 07:01:05;;;;;;;11.20;9.43;;;19.80;99.90;;;;;;5054062;28;20480;-66
2021/06/24 07:03:32;;;;;;;14.63;11.63;;;19.80;99.90;;;;;;5054584;28;20475;-66
2021/06/24 07:05:59;;;;;;;12.43;11.07;;;19.80;99.90;;;;;;5054858;28;20808;-66
2021/06/24 07:08:27;;;;;;;11.23;9.87;;;19.80;99.90;;;;;;5055616;28;20503;-66
2021/06/24 07:10:54;;;;;;;11.33;9.93;;;19.90;99.90;;;;;;5054782;28;20472;-67
2021/06/24 07:13:20;;;;;;;15.50;9.83;;;19.90;99.90;;;;;;5055294;28;20459;-65
2021/06/24 07:15:47;;;;;;;11.67;9.10;;;20.00;99.90;;;;;;5055424;28;20466;-64
2021/06/24 07:18:14;;;;;;;14.03;11.17;;;20.00;99.90;;;;;;5054810;28;20462;-65
2021/06/24 07:20:42;;;;;;;10.40;9.40;;;20.00;99.90;;;;;;5055526;28;20801;-65
2021/06/24 07:23:09;;;;;;;10.40;9.40;;;20.10;99.90;;;;;;5054663;28;20478;-65
2021/06/24 07:25:37;;;;;;;11.30;10.27;;;20.10;99.90;;;;;;5055273;28;20550;-65
2021/06/24 07:28:04;;;;;;;11.70;10.40;;;20.20;99.90;;;;;;5054533;28;20486;-65
2021/06/24 07:30:31;;;;;;;19.43;12.43;;;20.30;99.90;;;;;;5055038;28;20476;-64
2021/06/24 07:32:58;;;;;;;12.33;10.20;;;20.40;99.90;;;;;;5054437;28;20475;-65
2021/06/24 07:35:25;;;;;;;10.07;9.13;;;20.40;99.90;;;;;;5071925;28;20466;-65
2021/06/24 07:37:52;;;;;;;7.73;7.03;;;20.40;99.90;;;;;;5074934;28;20469;-67
2021/06/24 07:40:19;;;;;;;12.43;10.73;;;20.50;99.90;;;;;;5057236;28;20476;-66
2021/06/24 07:42:48;;;;;;;15.80;10.17;;;20.50;99.90;;;;;;5067500;28;20811;-65
2021/06/24 07:45:15;;;;;;;10.87;9.87;;;20.60;99.90;;;;;;5074363;28;20470;-65
2021/06/24 07:47:43;;;;;;;10.20;9.20;;;20.60;99.90;;;;;;5061001;28;20459;-66
2021/06/24 07:50:10;;;;;;;12.67;11.37;;;20.60;99.90;;;;;;5054455;28;20467;-65
2021/06/24 07:52:37;;;;;;;13.33;11.97;;;20.60;99.90;;;;;;5067828;28;20468;-66
2021/06/24 07:55:07;;;;;;;15.87;11.97;;;20.60;99.90;;;;;;5065910;28;20473;-66
2021/06/24 07:57:34;;;;;;;16.90;12.63;;;20.70;99.90;;;;;;5054700;28;20495;-66
2021/06/24 08:00:06;;;;;;;14.20;12.77;;;20.70;99.90;;;;;;5069704;28;20475;-66
2021/06/24 08:02:32;;;;;;;16.60;13.40;;;20.70;99.90;;;;;;5074560;28;20548;-66
2021/06/24 08:04:59;;;;;;;13.13;11.70;;;20.70;99.90;;;;;;5073986;28;20469;-67
2021/06/24 08:07:26;;;;;;;15.53;13.00;;;20.70;99.90;;;;;;5074327;28;20475;-65
2021/06/24 08:09:53;;;;;;;11.50;10.40;;;20.70;99.90;;;;;;5074457;28;20471;-65
2021/06/24 08:12:20;;;;;;;12.93;9.90;;;20.80;99.90;;;;;;5073741;28;20788;-65
2021/06/24 08:14:47;;;;;;;12.07;10.87;;;20.80;99.90;;;;;;5074391;28;20462;-65
2021/06/24 08:17:15;;;;;;;10.83;9.67;;;20.90;99.90;;;;;;5073102;28;20466;-66
2021/06/24 08:19:42;;;;;;;10.30;9.40;;;21.00;99.90;;;;;;5074293;28;20477;-65
2021/06/24 08:22:09;;;;;;;8.53;7.50;;;21.00;99.90;;;;;;5073622;28;20477;-65
2021/06/24 08:24:36;;;;;;;9.93;9.00;;;21.10;99.90;;;;;;5074542;28;20550;-65
2021/06/24 08:27:03;;;;;;;12.63;10.30;;;21.10;99.90;;;;;;5073348;28;20474;-65
2021/06/24 08:29:30;;;;;;;15.13;11.33;;;21.10;99.90;;;;;;5074159;28;20792;-65
2021/06/24 08:32:00;;;;;;;17.43;13.70;;;21.20;99.90;;;;;;5074217;28;20469;-64
2021/06/24 08:34:28;;;;;;;13.77;12.20;;;21.20;99.90;;;;;;5073598;28;20458;-65
2021/06/24 08:36:55;;;;;;;12.70;11.50;;;21.20;99.90;;;;;;5073574;28;20998;-65
2021/06/24 08:39:22;;;;;;;13.83;12.37;;;21.30;99.90;;;;;;5073438;28;20948;-65
2021/06/24 08:41:51;;;;;;;12.73;11.53;;;21.30;99.90;;;;;;5065678;28;20473;-65
2021/06/24 08:44:18;;;;;;;12.43;11.33;;;21.30;99.90;;;;;;5073220;28;20490;-65
2021/06/24 08:46:46;;;;;;;13.70;12.30;;;21.40;99.90;;;;;;5073778;28;20463;-65
2021/06/24 08:49:15;;;;;;;12.17;11.07;;;21.40;99.90;;;;;;5072951;28;20558;-65
2021/06/24 08:51:43;;;;;;;13.57;11.13;;;21.40;99.90;;;;;;5073477;28;20473;-65
2021/06/24 08:54:10;;;;;;;13.67;11.60;;;21.30;99.90;;;;;;5072663;28;20469;-65
2021/06/24 08:56:37;;;;;;;14.00;10.13;;;21.40;99.90;;;;;;5073422;28;20450;-65
2021/06/24 08:59:04;;;;;;;13.87;10.00;;;21.40;99.90;;;;;;5073174;28;20466;-65
2021/06/24 09:01:48;;;;;;;11.03;9.90;;;21.40;99.90;;;;;;5073252;28;20450;-65
2021/06/24 09:04:15;;;;;;;10.73;9.43;;;21.40;99.90;;;;;;5072662;28;20489;-65
2021/06/24 09:06:43;;;;;;;13.83;12.47;;;21.50;99.90;;;;;;5073224;28;20473;-65
2021/06/24 09:09:13;;;;;;;12.87;10.27;;;21.50;99.90;;;;;;5072546;28;20472;-66
2021/06/24 09:11:40;;;;;;;11.13;9.77;;;21.50;99.90;;;;;;5072810;28;20473;-65
2021/06/24 09:14:10;;;;;;;10.40;9.40;;;21.50;99.90;;;;;;5073069;28;20489;-65
2021/06/24 09:16:40;;;;;;;11.40;10.33;;;21.50;99.90;;;;;;5072880;28;20524;-65
2021/06/24 09:19:22;;;;;;;15.07;10.73;;;21.50;99.90;;;;;;5072939;28;20485;-65
2021/06/24 09:21:58;;;;;;;14.47;13.00;;;21.60;99.90;;;;;;5073211;28;20474;-65
2021/06/24 09:24:28;;;;;;;14.67;13.17;;;21.60;99.90;;;;;;5073024;28;20523;-66
2021/06/24 09:26:57;;;;;;;17.20;13.87;;;21.60;99.90;;;;;;5072290;28;20470;-65
2021/06/24 09:29:24;;;;;;;16.77;11.87;;;21.60;99.90;;;;;;5072971;28;20473;-65
2021/06/24 09:31:53;;;;;;;15.37;11.03;;;21.70;99.90;;;;;;5072548;28;20497;-65
2021/06/24 09:34:22;;;;;;;11.53;10.40;;;21.70;99.90;;;;;;5072827;28;20800;-65
2021/06/24 09:36:51;;;;;;;13.17;11.60;;;21.80;99.90;;;;;;5072867;28;20809;-65
2021/06/24 09:39:32;;;;;;;10.00;9.10;;;21.80;99.90;;;;;;5072570;28;20539;-65
2021/06/24 09:42:02;;;;;;;12.80;9.47;;;21.90;99.90;;;;;;5064255;28;20471;-65
2021/06/24 09:44:31;;;;;;;9.53;8.63;;;21.90;99.90;;;;;;5072830;28;20819;-66
2021/06/24 09:46:58;;;;;;;10.47;9.57;;;22.00;99.90;;;;;;5072244;28;20474;-66
2021/06/24 09:49:31;;;;;;;15.97;11.27;;;22.10;99.90;;;;;;5072604;28;20462;-66
2021/06/24 09:52:01;;;;;;;9.57;8.77;;;22.10;99.90;;;;;;5072311;28;20481;-66
2021/06/24 09:54:34;;;;;;;11.53;10.30;;;22.20;99.90;;;;;;5072836;28;20458;-66
2021/06/24 09:57:05;;;;;;;10.57;9.33;;;22.20;99.90;;;;;;5071972;28;20472;-66
2021/06/24 09:59:34;;;;;;;10.93;9.93;;;22.30;99.90;;;;;;5061065;28;20471;-66
2021/06/24 10:02:08;;;;;;;13.57;10.97;;;22.30;99.90;;;;;;5051910;28;20534;-66
2021/06/24 10:04:35;;;;;;;12.30;11.10;;;22.30;99.90;;;;;;5052836;28;20463;-66
2021/06/24 10:07:06;;;;;;;11.83;10.60;;;22.30;99.90;;;;;;5054296;28;20507;-66
2021/06/24 10:09:33;;;;;;;10.83;10.00;;;22.40;99.90;;;;;;5056706;28;20463;-66
2021/06/24 10:12:01;;;;;;;15.47;11.60;;;22.40;99.90;;;;;;5056133;28;20524;-65
2021/06/24 10:14:28;;;;;;;12.00;10.80;;;22.40;99.90;;;;;;5056404;28;20538;-65
2021/06/24 10:16:57;;;;;;;10.77;8.63;;;22.40;99.90;;;;;;5056350;28;20501;-66
2021/06/24 10:19:26;;;;;;;16.13;11.20;;;22.40;99.90;;;;;;5056413;28;21000;-66
2021/06/24 10:21:56;;;;;;;13.43;8.70;;;22.40;99.90;;;;;;5056372;28;20479;-66
2021/06/24 10:24:30;;;;;;;10.30;9.30;;;22.40;99.90;;;;;;5055829;28;20917;-66
2021/06/24 10:27:00;;;;;;;10.20;9.20;;;22.40;99.90;;;;;;5056224;28;20463;-66
2021/06/24 10:29:42;;;;;;;10.63;9.73;;;22.40;99.90;;;;;;5056240;28;20455;-66
2021/06/24 10:32:28;;;;;;;9.20;8.50;;;22.40;99.90;;;;;;5055945;28;20521;-64
2021/06/24 10:34:55;;;;;;;11.40;9.20;;;22.40;99.90;;;;;;5056042;28;20964;-65
2021/06/24 10:37:23;;;;;;;13.27;11.90;;;22.40;99.90;;;;;;5068729;28;20463;-65
2021/06/24 10:39:53;;;;;;;9.03;8.13;;;22.40;99.90;;;;;;5076160;28;20497;-66
2021/06/24 10:42:20;;;;;;;11.70;10.30;;;22.50;99.90;;;;;;5067485;28;20462;-66
2021/06/24 10:44:59;;;;;;;11.67;9.80;;;22.50;99.90;;;;;;5076007;28;20879;-66
2021/06/24 10:47:28;;;;;;;11.00;9.90;;;22.50;99.90;;;;;;5075328;28;20468;-65
2021/06/24 10:49:55;;;;;;;10.83;9.93;;;22.50;99.90;;;;;;5075792;28;20480;-65
2021/06/24 10:52:26;;;;;;;11.67;10.53;;;22.50;99.90;;;;;;5075318;28;20983;-65
2021/06/24 10:54:55;;;;;;;12.50;11.23;;;22.50;99.90;;;;;;5075734;28;21028;-65
2021/06/24 10:57:33;;;;;;;10.30;9.40;;;22.50;99.90;;;;;;5075290;28;20956;-66
2021/06/24 11:00:33;;;;;;;12.10;11.00;;;22.50;99.90;;;;;;5075671;28;20509;-65
2021/06/24 11:03:01;;;;;;;12.87;11.67;;;22.40;99.90;;;;;;5075531;28;21091;-66
2021/06/24 11:05:36;;;;;;;13.77;11.33;;;22.40;99.90;;;;;;5075826;28;20454;-65
2021/06/24 11:08:11;;;;;;;12.07;10.77;;;22.40;99.90;;;;;;5074978;28;20470;-66
2021/06/24 11:10:55;;;;;;;12.03;10.83;;;22.40;99.90;;;;;;5075365;28;20465;-65
2021/06/24 11:13:45;;;;;;;14.63;12.60;;;22.40;99.90;;;;;;5074194;28;20525;-65
2021/06/24 11:16:30;;;;;;;11.67;10.57;;;22.40;99.90;;;;;;5075400;28;20468;-66
2021/06/24 11:19:01;;;;;;;11.57;10.37;;;22.40;99.90;;;;;;5075064;28;20462;-66
2021/06/24 11:21:53;;;;;;;11.43;10.00;;;22.40;99.90;;;;;;5074953;28;20481;-66
2021/06/24 11:24:26;;;;;;;12.20;11.00;;;22.50;99.90;;;;;;5074881;28;20462;-66
2021/06/24 11:26:57;;;;;;;11.77;10.63;;;22.50;99.90;;;;;;5075370;28;20549;-66
2021/06/24 11:29:35;;;;;;;13.13;11.33;;;22.60;99.90;;;;;;5074577;28;20463;-66
2021/06/24 11:32:08;;;;;;;11.77;10.73;;;22.60;99.90;;;;;;5075361;28;20803;-66
2021/06/24 11:34:42;;;;;;;11.27;10.20;;;22.60;99.90;;;;;;5074790;28;20458;-66
2021/06/24 11:37:13;;;;;;;11.60;10.60;;;22.70;99.90;;;;;;5063438;28;20467;-66
2021/06/24 11:39:42;;;;;;;13.63;10.90;;;22.70;99.90;;;;;;5054807;28;20451;-66
2021/06/24 11:42:12;;;;;;;10.03;9.03;;;22.70;99.90;;;;;;5065834;28;20529;-66
2021/06/24 11:44:42;;;;;;;9.23;8.50;;;22.70;99.90;;;;;;5074486;28;20465;-66
2021/06/24 11:47:11;;;;;;;7.73;7.03;;;22.80;99.90;;;;;;5074628;28;20523;-66
2021/06/24 12:03:31;;;;;;;6.60;6.00;;;23.00;98.60;;;;;;5072138;28;20457;-66
2021/06/24 12:05:58;;;;;;;5.97;5.50;;;23.00;98.60;;;;;;5074488;28;20477;-66
2021/06/24 12:08:27;;;;;;;6.50;6.00;;;23.00;98.50;;;;;;5074505;28;20470;-66
2021/06/24 12:11:05;;;;;;;6.40;5.87;;;23.10;98.70;;;;;;5073868;28;20461;-66
2021/06/24 12:13:34;;;;;;;7.67;7.07;;;23.20;98.70;;;;;;5073803;28;20462;-66
2021/06/24 12:16:02;;;;;;;5.50;5.00;;;23.20;98.60;;;;;;5074379;28;20466;-66
2021/06/24 12:18:36;;;;;;;7.03;6.43;;;23.20;98.60;;;;;;5074177;28;20963;-66
2021/06/24 12:21:05;;;;;;;6.50;6.00;;;23.30;98.70;;;;;;5073737;28;20533;-66
2021/06/24 12:23:39;;;;;;;6.37;5.77;;;23.30;98.70;;;;;;5074103;28;20458;-66
2021/06/24 12:26:06;;;;;;;9.83;6.83;;;23.40;99.00;;;;;;5073779;28;20454;-66
2021/06/24 12:28:34;;;;;;;6.83;5.80;;;23.40;98.90;;;;;;5072876;28;20553;-66
2021/06/24 12:31:01;;;;;;;6.03;5.53;;;23.40;98.40;;;;;;5073424;28;22642;-66
2021/06/24 12:33:29;;;;;;;5.90;5.30;;;23.40;98.40;;;;;;5074128;28;20811;-66
2021/06/24 12:35:56;;;;;;;4.67;4.20;;;23.40;98.00;;;;;;5073343;28;20538;-66
2021/06/24 12:38:25;;;;;;;7.90;5.97;;;23.40;96.80;;;;;;5073915;28;20467;-66
2021/06/24 12:40:54;;;;;;;6.30;5.40;;;23.40;96.60;;;;;;5072666;28;20462;-66
2021/06/24 12:43:23;;;;;;;4.90;4.60;;;23.40;96.60;;;;;;5066597;28;20960;-66
2021/06/24 12:45:53;;;;;;;5.53;5.13;;;23.50;96.90;;;;;;5073259;28;20469;-66
2021/06/24 12:48:31;;;;;;;5.53;5.10;;;23.50;96.90;;;;;;5073424;28;20542;-66
2021/06/24 12:51:00;;;;;;;6.57;5.17;;;23.60;96.70;;;;;;5073101;28;20458;-66
2021/06/24 12:53:29;;;;;;;5.60;5.10;;;23.60;96.60;;;;;;5073610;28;20492;-66
2021/06/24 12:55:56;;;;;;;6.47;5.97;;;23.70;96.50;;;;;;5073178;28;20469;-66
2021/06/24 12:58:36;;;;;;;4.97;4.43;;;23.70;96.10;;;;;;5073344;28;20948;-66